Time;durP1;ratioP1;P1;durP2;ratioP2;P2;SDS_P1;SDS_P2;PMS_P1;PMS_P2;Temp;Humidity;BMP_temperature;BMP_pressure;BME280_temperature;BME280_humidity;BME280_pressure;Samples;Min_cycle;Max_cycle;Signal;HPM_P1;HPM_P2
2021/04/27 00:00:37;;;;;;;9.88;3.22;;;;;;;13.42;57.81;101144.78;5075990;28;20047;-70
2021/04/27 00:03:24;;;;;;;8.10;2.95;;;;;;;13.46;57.98;101133.31;5076526;28;20041;-70
2021/04/27 00:06:12;;;;;;;8.52;3.58;;;;;;;13.35;58.22;101128.78;5075442;28;20055;-69
2021/04/27 00:08:59;;;;;;;7.72;3.47;;;;;;;13.18;58.59;101131.28;5075957;28;20052;-70
2021/04/27 00:11:47;;;;;;;7.65;4.07;;;;;;;13.19;58.41;101132.16;5074778;28;20399;-70
2021/04/27 00:14:35;;;;;;;10.05;3.88;;;;;;;13.18;58.49;101128.63;5075289;28;20528;-70
2021/04/27 00:17:23;;;;;;;6.32;2.90;;;;;;;13.25;58.46;101124.28;5075811;28;20083;-70
2021/04/27 00:20:12;;;;;;;8.32;3.03;;;;;;;13.29;58.39;101123.41;5075718;28;20606;-70
2021/04/27 00:22:59;;;;;;;7.97;3.25;;;;;;;13.32;58.09;101127.00;5075009;28;20127;-69
2021/04/27 00:25:47;;;;;;;6.75;3.17;;;;;;;13.21;58.29;101139.22;5076030;28;20463;-70
2021/04/27 00:28:34;;;;;;;9.73;2.65;;;;;;;12.99;58.46;101131.91;5075637;28;20134;-69
2021/04/27 00:31:22;;;;;;;6.47;2.80;;;;;;;12.87;58.75;101123.78;5076435;28;20044;-69
2021/04/27 00:34:10;;;;;;;7.60;3.38;;;;;;;12.88;58.56;101115.84;5076041;28;20123;-69
2021/04/27 00:36:57;;;;;;;5.00;2.97;;;;;;;12.92;58.43;101115.03;5076893;28;20127;-70
2021/04/27 00:39:45;;;;;;;6.90;3.55;;;;;;;12.95;58.16;101114.16;5060218;28;20040;-69
2021/04/27 00:42:34;;;;;;;4.80;2.47;;;;;;;12.92;58.36;101114.16;5074642;28;20128;-70
2021/04/27 00:45:23;;;;;;;8.73;3.08;;;;;;;12.69;58.85;101105.91;5074533;28;20183;-69
2021/04/27 00:48:10;;;;;;;6.78;3.25;;;;;;;12.60;59.03;101124.34;5075424;28;20064;-70
2021/04/27 00:50:59;;;;;;;10.15;3.47;;;;;;;12.58;59.00;101126.09;5075776;28;20072;-70
2021/04/27 00:53:47;;;;;;;5.60;3.13;;;;;;;12.51;59.07;101121.56;5075497;28;20492;-70
2021/04/27 00:56:34;;;;;;;9.48;3.40;;;;;;;12.37;59.39;101138.16;5076299;28;20064;-69
2021/04/27 00:59:21;;;;;;;8.18;3.40;;;;;;;12.24;59.56;101132.66;5076260;28;20132;-69
2021/04/27 01:02:09;;;;;;;6.88;2.78;;;;;;;12.27;59.58;101125.63;5073458;28;20048;-69
2021/04/27 01:04:56;;;;;;;9.15;4.40;;;;;;;12.20;59.59;101128.19;5074035;28;20131;-69
2021/04/27 01:07:52;;;;;;;8.57;3.28;;;;;;;12.21;59.55;101128.19;5074307;28;20068;-69
2021/04/27 01:10:48;;;;;;;7.22;3.05;;;;;;;12.34;59.15;101137.19;5074351;28;20064;-69
2021/04/27 01:13:39;;;;;;;8.77;3.50;;;;;;;12.47;58.92;101135.66;5075329;28;20044;-69
2021/04/27 01:16:29;;;;;;;7.45;2.80;;;;;;;12.45;58.58;101134.72;5074340;28;20487;-70
2021/04/27 01:19:20;;;;;;;7.28;3.13;;;;;;;12.32;58.58;101128.38;5074949;28;20061;-69
2021/04/27 01:22:08;;;;;;;9.43;3.40;;;;;;;12.26;58.74;101126.53;5060173;28;20572;-69
2021/04/27 01:25:02;;;;;;;8.48;3.15;;;;;;;12.16;58.77;101132.53;5074232;28;20122;-69
2021/04/27 01:27:55;;;;;;;8.98;3.35;;;;;;;12.09;59.09;101135.97;5074736;28;20055;-69
2021/04/27 01:30:45;;;;;;;6.43;3.45;;;;;;;12.09;59.15;101135.06;5060465;28;20044;-69
2021/04/27 01:33:33;;;;;;;7.20;2.63;;;;;;;12.06;59.01;101135.94;5060576;28;20399;-69
2021/04/27 01:36:22;;;;;;;8.38;3.28;;;;;;;12.04;59.33;101129.72;5074215;28;20137;-69
2021/04/27 01:39:09;;;;;;;8.23;3.45;;;;;;;11.96;59.45;101132.22;5059919;28;20040;-69
2021/04/27 01:41:58;;;;;;;7.40;2.95;;;;;;;11.79;59.60;101154.88;5073879;28;20044;-69
2021/04/27 01:44:47;;;;;;;11.07;3.70;;;;;;;11.52;60.44;101157.91;5073302;28;20136;-69
2021/04/27 01:47:35;;;;;;;4.63;2.83;;;;;;;11.70;60.18;101152.03;5073784;28;20535;-70
2021/04/27 01:50:23;;;;;;;6.18;2.90;;;;;;;11.86;59.85;101142.66;5075132;28;20076;-69
2021/04/27 01:53:14;;;;;;;6.53;3.25;;;;;;;11.89;59.84;101134.75;5074193;28;20427;-69
2021/04/27 01:56:02;;;;;;;5.97;2.88;;;;;;;11.77;59.83;101132.81;5074547;28;20068;-69
2021/04/27 01:58:50;;;;;;;8.73;3.67;;;;;;;11.78;59.94;101152.22;5074315;28;20045;-70
2021/04/27 02:01:39;;;;;;;8.13;4.10;;;;;;;11.71;59.70;101148.53;5073510;28;20127;-69
2021/04/27 02:04:29;;;;;;;8.98;2.80;;;;;;;11.73;59.69;101138.88;5074266;28;20048;-70
2021/04/27 02:07:16;;;;;;;6.03;2.67;;;;;;;11.79;59.83;101131.09;5073724;28;20051;-69
2021/04/27 02:10:06;;;;;;;7.18;2.90;;;;;;;11.77;59.56;101127.50;5073296;28;20045;-69
2021/04/27 02:12:56;;;;;;;8.63;3.67;;;;;;;11.66;59.70;101139.66;5074569;28;20544;-70
2021/04/27 02:15:45;;;;;;;6.82;3.10;;;;;;;11.32;60.36;101140.78;5073527;28;20166;-69
2021/04/27 02:18:39;;;;;;;6.22;3.38;;;;;;;11.34;60.39;101148.75;5074635;28;20044;-68
2021/04/27 02:21:27;;;;;;;8.07;3.85;;;;;;;11.38;60.42;101154.13;5073182;28;20065;-69
2021/04/27 02:24:15;;;;;;;4.68;2.58;;;;;;;11.39;60.32;101150.63;5073996;28;20559;-69
2021/04/27 02:27:04;;;;;;;6.25;2.92;;;;;;;11.44;59.81;101153.34;5074243;28;20118;-69
2021/04/27 02:29:52;;;;;;;9.30;3.47;;;;;;;11.46;59.75;101146.34;5072986;28;20075;-69
2021/04/27 02:32:41;;;;;;;10.70;4.25;;;;;;;11.48;59.44;101158.72;5073101;28;20071;-70
2021/04/27 02:35:31;;;;;;;7.32;3.25;;;;;;;11.55;59.35;101159.72;5074482;28;20139;-70
2021/04/27 02:38:20;;;;;;;6.82;3.17;;;;;;;11.43;59.71;101144.50;5073269;28;20440;-69
2021/04/27 02:41:08;;;;;;;6.57;3.25;;;;;;;11.36;60.16;101131.16;5073671;28;20468;-69
2021/04/27 02:43:55;;;;;;;5.20;2.92;;;;;;;11.21;60.49;101136.16;5072669;28;20140;-70
2021/04/27 02:46:45;;;;;;;6.53;3.15;;;;;;;11.17;60.28;101143.13;5073273;28;20495;-69
2021/04/27 02:49:32;;;;;;;6.55;2.70;;;;;;;11.28;60.02;101143.34;5074264;28;20044;-70
2021/04/27 02:52:21;;;;;;;7.45;3.15;;;;;;;11.36;59.91;101131.16;5059029;28;20040;-70
2021/04/27 02:55:12;;;;;;;5.32;2.90;;;;;;;11.37;60.14;101122.38;5074096;28;20075;-70
2021/04/27 02:58:00;;;;;;;5.15;3.30;;;;;;;11.23;60.13;101119.47;5074315;28;20068;-70
2021/04/27 03:00:48;;;;;;;6.72;3.00;;;;;;;11.26;60.01;101116.91;5072969;28;20165;-69
2021/04/27 03:03:36;;;;;;;8.05;3.08;;;;;;;11.35;60.21;101119.72;5072526;28;20056;-69
2021/04/27 03:06:24;;;;;;;9.02;3.45;;;;;;;11.46;60.07;101114.59;5073698;28;20448;-69
2021/04/27 03:09:12;;;;;;;8.98;3.97;;;;;;;11.40;60.30;101122.44;5073274;28;20074;-69
2021/04/27 03:12:00;;;;;;;6.43;2.70;;;;;;;11.25;60.94;101116.84;5074408;28;20131;-69
2021/04/27 03:14:47;;;;;;;8.57;2.95;;;;;;;11.34;61.29;101119.69;5072654;28;20135;-70
2021/04/27 03:17:34;;;;;;;7.25;2.80;;;;;;;11.34;61.15;101123.22;5073780;28;20111;-70
2021/04/27 03:20:22;;;;;;;8.85;3.13;;;;;;;11.36;60.82;101120.56;5073840;28;20127;-69
2021/04/27 03:23:11;;;;;;;8.13;3.33;;;;;;;11.39;60.93;101118.00;5072540;28;20492;-70
2021/04/27 03:26:00;;;;;;;11.90;3.90;;;;;;;11.46;60.87;101106.69;5072176;28;20194;-69
2021/04/27 03:28:47;;;;;;;8.40;3.10;;;;;;;11.48;61.20;101103.22;5072647;28;20058;-69
2021/04/27 03:31:35;;;;;;;6.15;2.60;;;;;;;11.46;61.44;101106.69;5073572;28;20048;-70
2021/04/27 03:34:24;;;;;;;8.50;3.88;;;;;;;11.44;61.31;101118.97;5072029;28;20354;-69
2021/04/27 03:37:11;;;;;;;8.60;2.80;;;;;;;11.42;61.24;101120.72;5073368;28;20068;-69
2021/04/27 03:39:58;;;;;;;5.07;2.35;;;;;;;11.33;61.08;101113.50;5072395;28;20131;-69
2021/04/27 03:42:47;;;;;;;5.57;2.63;;;;;;;11.18;61.25;101114.09;5072044;28;20128;-69
2021/04/27 03:45:38;;;;;;;8.15;3.67;;;;;;;11.24;61.40;101123.00;5053408;28;20489;-69
2021/04/27 03:48:25;;;;;;;6.03;2.85;;;;;;;11.31;61.27;101133.72;5053428;28;20143;-69
2021/04/27 03:51:13;;;;;;;4.65;2.92;;;;;;;11.44;61.26;101125.16;5053528;28;20128;-69
2021/04/27 03:54:00;;;;;;;8.15;3.72;;;;;;;11.59;61.70;101125.44;5053199;28;20544;-69
2021/04/27 03:56:47;;;;;;;7.53;3.58;;;;;;;11.69;62.01;101126.47;5052514;28;20076;-69
2021/04/27 03:59:35;;;;;;;8.25;3.85;;;;;;;11.76;61.88;101133.66;5052827;28;20053;-70
2021/04/27 04:02:23;;;;;;;7.20;3.60;;;;;;;11.78;61.88;101125.75;5053047;28;20171;-69
2021/04/27 04:05:12;;;;;;;8.77;3.40;;;;;;;11.97;61.77;101131.38;5025763;28;20484;-69
2021/04/27 04:07:59;;;;;;;8.40;5.40;;;;;;;12.01;61.77;101134.97;5052543;28;20136;-69
2021/04/27 04:10:47;;;;;;;9.25;4.18;;;;;;;12.04;61.91;101135.00;5053121;28;20083;-69
2021/04/27 04:13:34;;;;;;;12.93;4.65;;;;;;;12.29;61.69;101136.25;5053278;28;20041;-69
2021/04/27 04:16:23;;;;;;;9.40;3.50;;;;;;;12.49;61.62;101149.78;5053468;28;20130;-69
2021/04/27 04:19:10;;;;;;;7.85;4.05;;;;;;;12.69;61.65;101148.28;5037994;28;20045;-69
2021/04/27 04:21:57;;;;;;;7.18;5.20;;;;;;;12.91;61.48;101138.88;5052556;28;20041;-69
2021/04/27 04:24:45;;;;;;;6.90;3.65;;;;;;;13.11;61.37;101146.19;5052315;28;20083;-69
2021/04/27 04:27:32;;;;;;;9.20;4.65;;;;;;;13.31;61.32;101142.88;5052241;28;20397;-69
2021/04/27 04:30:22;;;;;;;7.43;3.30;;;;;;;13.47;61.44;101143.03;5053832;28;20187;-69
2021/04/27 04:33:10;;;;;;;9.63;4.10;;;;;;;13.72;61.43;101135.34;5053093;28;20061;-69
2021/04/27 04:35:58;;;;;;;7.65;3.65;;;;;;;13.93;61.37;101138.16;5053071;28;20198;-69
2021/04/27 04:38:45;;;;;;;6.35;3.65;;;;;;;14.08;61.32;101127.66;5041125;28;20186;-70
2021/04/27 04:41:32;;;;;;;6.35;2.97;;;;;;;14.27;60.66;101144.59;5056247;28;20068;-69
2021/04/27 04:44:20;;;;;;;5.32;2.53;;;;;;;14.30;59.14;101136.66;5066473;28;20075;-70
2021/04/27 04:47:07;;;;;;;8.75;3.67;;;;;;;14.45;59.57;101131.47;5076319;28;20143;-69
2021/04/27 04:49:57;;;;;;;8.32;3.33;;;;;;;14.82;59.76;101127.22;5076399;28;20162;-69
2021/04/27 04:52:47;;;;;;;7.50;3.40;;;;;;;15.14;59.67;101127.34;5074800;28;20530;-69
2021/04/27 04:55:34;;;;;;;7.05;3.08;;;;;;;15.44;59.14;101127.38;5075558;28;20044;-70
2021/04/27 04:58:22;;;;;;;7.28;3.22;;;;;;;15.73;59.06;101122.13;5076551;28;20064;-70
2021/04/27 05:01:10;;;;;;;5.57;2.35;;;;;;;15.98;58.28;101122.13;5076365;28;20424;-70
2021/04/27 05:03:57;;;;;;;6.38;2.90;;;;;;;16.32;58.00;101123.84;5076327;28;20140;-70
2021/04/27 05:06:47;;;;;;;4.28;2.60;;;;;;;16.71;57.83;101125.56;5076383;28;20051;-70
2021/04/27 05:09:34;;;;;;;8.77;3.00;;;;;;;17.04;57.71;101121.84;5076256;28;20037;-71
2021/04/27 05:12:21;;;;;;;8.10;3.15;;;;;;;17.27;57.41;101119.94;5075899;28;20438;-70
2021/04/27 05:15:10;;;;;;;9.02;3.35;;;;;;;17.54;57.09;101106.41;5075800;28;20143;-71
2021/04/27 05:17:59;;;;;;;5.10;2.33;;;;;;;17.85;56.79;101106.22;5075011;28;20083;-70
2021/04/27 05:20:47;;;;;;;10.52;3.00;;;;;;;18.19;56.42;101112.09;5074625;28;20491;-70
2021/04/27 05:23:35;;;;;;;6.35;2.50;;;;;;;18.53;55.83;101112.63;5074302;28;20068;-70
2021/04/27 05:26:23;;;;;;;9.02;3.47;;;;;;;18.82;55.19;101112.34;5075095;28;20135;-70
2021/04/27 05:29:10;;;;;;;7.93;3.10;;;;;;;19.01;54.90;101116.53;5075694;28;20127;-70
2021/04/27 05:31:57;;;;;;;7.60;2.38;;;;;;;19.31;54.13;101124.13;5075329;28;20362;-71
2021/04/27 05:34:45;;;;;;;7.15;2.53;;;;;;;19.61;52.95;101109.44;5075992;28;20598;-71
2021/04/27 05:37:32;;;;;;;5.07;2.28;;;;;;;19.90;51.74;101116.97;5075350;28;20041;-71
2021/04/27 05:40:21;;;;;;;7.40;2.20;;;;;;;20.15;50.79;101117.47;5075424;28;20044;-71
2021/04/27 05:43:08;;;;;;;10.02;3.22;;;;;;;20.35;50.24;101127.84;5075446;28;20131;-71
2021/04/27 05:45:56;;;;;;;7.15;2.58;;;;;;;20.56;50.05;101127.41;5073334;28;20067;-72
2021/04/27 05:48:44;;;;;;;4.53;2.10;;;;;;;20.77;48.52;101128.78;5072899;28;20075;-72
2021/04/27 05:51:31;;;;;;;5.68;2.55;;;;;;;21.01;47.73;101136.31;5073730;28;20131;-71
2021/04/27 05:54:19;;;;;;;5.05;2.03;;;;;;;21.21;46.57;101134.13;5074065;28;20127;-71
2021/04/27 05:57:11;;;;;;;4.85;2.42;;;;;;;21.38;44.37;101126.59;5074474;28;20474;-71
2021/04/27 05:59:59;;;;;;;8.27;2.00;;;;;;;21.51;43.75;101124.50;5074747;28;20136;-71
2021/04/27 06:02:47;;;;;;;6.30;2.45;;;;;;;21.66;42.90;101126.81;5060420;28;20049;-71
2021/04/27 06:05:34;;;;;;;4.88;2.30;;;;;;;21.78;42.85;101133.72;5074198;28;20114;-70
2021/04/27 06:08:22;;;;;;;4.40;2.22;;;;;;;22.01;42.29;101127.78;5073738;28;20143;-71
2021/04/27 06:11:09;;;;;;;4.60;2.50;;;;;;;22.20;42.19;101121.88;5073958;28;20415;-71
2021/04/27 06:13:58;;;;;;;5.60;2.70;;;;;;;22.22;41.19;101122.72;5073720;28;20051;-71
2021/04/27 06:16:46;;;;;;;8.70;2.42;;;;;;;22.19;41.15;101129.97;5074172;28;20199;-71
2021/04/27 06:19:33;;;;;;;8.07;2.92;;;;;;;22.26;40.63;101136.97;5073333;28;20139;-71
2021/04/27 06:22:21;;;;;;;5.70;2.70;;;;;;;22.39;40.17;101142.91;5074798;28;20044;-71
2021/04/27 06:25:10;;;;;;;4.82;2.15;;;;;;;22.70;39.97;101134.88;5073232;28;20101;-71
2021/04/27 06:27:57;;;;;;;5.18;2.65;;;;;;;22.90;39.41;101137.94;5072918;28;20032;-71
2021/04/27 06:30:47;;;;;;;6.10;2.25;;;;;;;23.01;38.52;101128.59;5072877;28;20095;-71
2021/04/27 06:33:36;;;;;;;6.07;2.75;;;;;;;23.09;38.41;101135.56;5073587;28;20071;-71
2021/04/27 06:36:24;;;;;;;6.45;2.40;;;;;;;23.24;38.09;101145.84;5074442;28;20083;-71
2021/04/27 06:39:12;;;;;;;6.32;2.47;;;;;;;23.31;36.68;101148.31;5073066;28;20051;-71
2021/04/27 06:41:59;;;;;;;4.20;2.30;;;;;;;23.39;36.71;101150.78;5073085;28;20555;-71
2021/04/27 06:44:47;;;;;;;5.60;2.47;;;;;;;23.69;36.43;101149.00;5072828;28;20068;-71
2021/04/27 06:47:35;;;;;;;6.10;2.28;;;;;;;23.72;36.02;101155.16;5073419;28;20080;-72
2021/04/27 06:50:23;;;;;;;5.03;2.35;;;;;;;23.90;35.92;101169.84;5073865;28;20064;-71
2021/04/27 06:53:11;;;;;;;7.57;3.10;;;;;;;23.92;36.31;101169.78;5072630;28;20053;-71
2021/04/27 06:55:59;;;;;;;8.30;2.90;;;;;;;23.96;36.63;101171.47;5073989;28;20496;-71
2021/04/27 06:58:46;;;;;;;6.28;3.20;;;;;;;23.98;37.42;101172.28;5071948;28;20064;-71
2021/04/27 07:01:35;;;;;;;6.80;3.10;;;;;;;24.00;37.53;101159.63;5072751;28;20139;-71
2021/04/27 07:04:27;;;;;;;9.75;3.42;;;;;;;23.94;37.86;101162.53;5059263;28;20143;-72
2021/04/27 07:07:16;;;;;;;7.50;3.55;;;;;;;23.89;37.78;101162.72;5072544;28;20052;-71
2021/04/27 07:10:05;;;;;;;7.45;3.25;;;;;;;24.02;37.16;101169.47;5072845;28;20067;-71
2021/04/27 07:12:54;;;;;;;8.07;4.15;;;;;;;24.16;36.87;101166.25;5072478;28;20048;-71
2021/04/27 07:15:42;;;;;;;7.88;2.45;;;;;;;24.25;36.60;101171.41;5071969;28;20053;-72
2021/04/27 07:18:29;;;;;;;11.18;7.18;;;;;;;24.50;35.73;101176.81;5072058;28;20127;-71
2021/04/27 07:21:20;;;;;;;6.50;2.70;;;;;;;24.63;36.08;101173.63;5072337;28;20051;-71
2021/04/27 07:24:08;;;;;;;9.55;2.78;;;;;;;24.62;36.42;101174.56;5072425;28;20094;-71
2021/04/27 07:26:56;;;;;;;8.00;2.38;;;;;;;24.40;36.98;101186.19;5059716;28;20186;-71
2021/04/27 07:29:43;;;;;;;9.50;3.40;;;;;;;24.35;37.20;101182.78;5072444;28;20051;-71
2021/04/27 07:32:33;;;;;;;5.78;2.45;;;;;;;24.47;36.93;101174.25;5059004;28;20068;-71
2021/04/27 07:35:20;;;;;;;5.53;2.00;;;;;;;24.27;36.36;101166.84;5073017;28;20183;-71
2021/04/27 07:38:10;;;;;;;8.73;4.30;;;;;;;24.42;35.97;101170.78;5072840;28;20135;-71
2021/04/27 07:40:57;;;;;;;6.40;2.50;;;;;;;24.56;35.55;101163.09;5073199;28;20486;-71
2021/04/27 07:43:48;;;;;;;6.50;2.38;;;;;;;24.53;35.42;101168.63;5073119;28;20469;-71
2021/04/27 07:46:35;;;;;;;6.97;2.38;;;;;;;24.52;35.75;101151.53;5072224;28;20075;-71
2021/04/27 07:49:23;;;;;;;4.55;2.00;;;;;;;24.53;35.79;101155.13;5073317;28;20139;-71
2021/04/27 07:52:10;;;;;;;4.50;2.40;;;;;;;24.62;35.59;101165.56;5072808;28;20041;-72
2021/04/27 07:54:58;;;;;;;6.70;2.13;;;;;;;24.58;34.88;101163.94;5072573;28;20086;-72
2021/04/27 07:57:46;;;;;;;6.28;2.35;;;;;;;24.38;35.18;101175.44;5072868;28;20045;-71
2021/04/27 08:00:33;;;;;;;7.10;2.50;;;;;;;24.56;35.33;101173.91;5044651;28;20088;-71
2021/04/27 08:03:21;;;;;;;7.07;2.85;;;;;;;24.80;35.33;101175.72;5072943;28;20094;-71
2021/04/27 08:06:08;;;;;;;6.57;3.35;;;;;;;25.05;35.31;101167.63;5072052;28;20139;-71
2021/04/27 08:08:56;;;;;;;4.75;2.20;;;;;;;24.86;35.62;101180.03;5073342;28;20069;-71
2021/04/27 08:11:45;;;;;;;9.15;2.72;;;;;;;24.61;36.38;101186.28;5074950;28;20048;-72
2021/04/27 08:14:32;;;;;;;7.60;3.13;;;;;;;24.57;37.09;101187.34;5076818;28;20503;-72
2021/04/27 08:17:20;;;;;;;24.40;12.60;;;;;;;24.58;36.96;101183.72;5075862;28;20078;-72
2021/04/27 08:20:12;;;;;;;13.18;5.78;;;;;;;24.63;37.20;101181.72;5075892;28;20471;-72
2021/04/27 08:23:00;;;;;;;6.32;2.55;;;;;;;24.77;36.78;101185.75;5062449;28;20078;-72
2021/04/27 08:25:47;;;;;;;29.23;17.42;;;;;;;24.63;36.81;101184.44;5075033;28;20155;-72
2021/04/27 08:28:36;;;;;;;7.28;2.88;;;;;;;24.85;36.63;101179.16;5074857;28;20070;-72
2021/04/27 08:31:23;;;;;;;13.25;5.28;;;;;;;25.07;36.54;101178.38;5062037;28;20044;-71
2021/04/27 08:34:11;;;;;;;6.00;2.83;;;;;;;24.91;36.03;101181.66;5075129;28;20078;-72
2021/04/27 08:36:58;;;;;;;5.85;2.83;;;;;;;25.10;35.90;101184.53;5075916;28;20128;-72
2021/04/27 08:39:46;;;;;;;5.80;2.88;;;;;;;25.13;35.60;101184.44;5076065;28;20491;-72
2021/04/27 08:42:35;;;;;;;6.10;2.00;;;;;;;25.12;34.68;101177.28;5075585;28;20182;-72
2021/04/27 08:45:24;;;;;;;7.25;2.72;;;;;;;25.14;34.69;101183.47;5074446;28;20052;-72
2021/04/27 08:48:12;;;;;;;15.15;6.10;;;;;;;25.10;34.41;101172.84;5075897;28;20451;-72
2021/04/27 08:51:00;;;;;;;3.92;1.95;;;;;;;25.10;34.99;101179.13;5074908;28;20064;-72
2021/04/27 08:53:47;;;;;;;8.02;2.53;;;;;;;25.25;35.24;101169.56;5075869;28;20052;-72
2021/04/27 08:56:34;;;;;;;5.85;2.60;;;;;;;25.33;35.26;101171.06;5074990;28;20072;-72
2021/04/27 08:59:22;;;;;;;9.45;2.83;;;;;;;25.50;35.32;101161.38;5074786;28;20515;-72
2021/04/27 09:02:12;;;;;;;7.53;2.47;;;;;;;25.34;35.71;101163.78;5076026;28;20072;-72
2021/04/27 09:05:00;;;;;;;7.28;3.22;;;;;;;25.13;35.81;101157.41;5074244;28;20441;-72
2021/04/27 09:07:48;;;;;;;6.70;2.67;;;;;;;25.13;36.10;101154.72;5074583;28;20060;-72
2021/04/27 09:10:44;;;;;;;7.35;2.17;;;;;;;25.31;35.74;101150.41;5074524;28;20071;-74
2021/04/27 09:13:32;;;;;;;5.43;2.63;;;;;;;25.35;35.24;101146.63;5075805;28;20488;-73
2021/04/27 09:16:26;;;;;;;5.72;2.55;;;;;;;25.53;34.71;101145.94;5073666;28;20377;-72
2021/04/27 09:19:31;;;;;;;7.25;2.80;;;;;;;25.99;34.34;101144.94;5074878;28;20394;-73
2021/04/27 09:22:20;;;;;;;9.63;3.78;;;;;;;26.26;33.91;101144.72;5075195;28;20480;-73
2021/04/27 09:25:09;;;;;;;7.72;3.38;;;;;;;26.07;34.07;101136.47;5075924;28;20132;-72
2021/04/27 09:27:57;;;;;;;5.90;2.63;;;;;;;25.86;34.19;101151.81;5074782;28;20041;-72
2021/04/27 09:30:44;;;;;;;6.38;2.47;;;;;;;26.03;33.75;101142.97;5073919;28;20131;-74
2021/04/27 09:33:32;;;;;;;5.35;2.40;;;;;;;26.18;33.58;101145.94;5074775;28;20044;-74
2021/04/27 09:36:22;;;;;;;6.00;2.10;;;;;;;26.20;33.33;101140.44;5074331;28;20068;-75
2021/04/27 09:39:09;;;;;;;3.92;2.20;;;;;;;26.11;33.42;101127.31;5074322;28;20131;-74
2021/04/27 09:41:59;;;;;;;5.80;2.17;;;;;;;26.00;33.74;101130.44;5073690;28;20579;-73
2021/04/27 09:44:51;;;;;;;9.85;4.10;;;;;;;25.99;33.61;101122.44;5067517;28;20102;-74
2021/04/27 09:47:38;;;;;;;8.95;3.05;;;;;;;26.12;33.52;101123.66;5074461;28;20063;-73
2021/04/27 09:50:27;;;;;;;6.80;2.95;;;;;;;26.11;33.03;101122.78;5075605;28;20546;-73
2021/04/27 09:53:15;;;;;;;5.32;2.00;;;;;;;25.88;33.58;101116.56;5075051;28;20123;-73
2021/04/27 09:56:03;;;;;;;8.90;3.38;;;;;;;25.83;33.64;101119.47;5074288;28;20136;-74
2021/04/27 09:59:02;;;;;;;6.13;2.30;;;;;;;25.92;34.27;101115.50;5074916;28;20125;-73
2021/04/27 10:01:50;;;;;;;15.95;9.45;;;;;;;25.97;33.74;101103.53;5074466;28;20043;-75
2021/04/27 10:04:39;;;;;;;12.60;5.57;;;;;;;25.89;34.07;101105.69;5074432;28;20060;-74
2021/04/27 10:07:26;;;;;;;11.73;5.57;;;;;;;25.85;34.37;101114.88;5074657;28;20407;-74
2021/04/27 10:10:18;;;;;;;21.67;11.82;;;;;;;25.97;34.59;101108.06;5073664;28;20049;-74
2021/04/27 10:13:08;;;;;;;6.45;3.17;;;;;;;25.95;34.62;101099.13;5074037;28;20060;-74
2021/04/27 10:15:55;;;;;;;9.20;3.75;;;;;;;25.78;34.93;101102.56;5073535;28;20052;-74
2021/04/27 10:18:43;;;;;;;5.30;2.70;;;;;;;25.75;35.68;101110.78;5073297;28;20066;-75
2021/04/27 10:21:30;;;;;;;6.05;2.33;;;;;;;25.51;36.04;101109.06;5073732;28;20049;-74
2021/04/27 10:24:23;;;;;;;5.00;2.80;;;;;;;25.26;36.86;101111.88;5058563;28;20079;-74
2021/04/27 10:27:12;;;;;;;6.40;2.90;;;;;;;25.01;37.21;101125.44;5059626;28;20460;-74
2021/04/27 10:30:43;;;;;;;10.85;3.00;;;;;;;24.95;37.31;101129.25;5072998;28;20067;-75
2021/04/27 10:33:31;;;;;;;120.20;94.10;;;;;;;24.84;37.80;101141.38;5074025;28;20045;-75
2021/04/27 10:36:18;;;;;;;26.45;23.80;;;;;;;24.80;37.64;101153.25;5074731;28;20385;-74
2021/04/27 10:39:06;;;;;;;15.60;13.30;;;;;;;24.86;38.20;101150.31;5074234;28;20075;-75
2021/04/27 10:41:57;;;;;;;54.58;43.85;;;;;;;24.96;37.53;101157.16;5073951;28;20076;-75
2021/04/27 10:44:53;;;;;;;18.15;12.48;;;;;;;25.10;37.38;101160.22;5073897;28;20044;-75
2021/04/27 10:47:42;;;;;;;13.48;8.27;;;;;;;25.21;36.20;101174.19;5072785;28;20139;-74
2021/04/27 10:50:36;;;;;;;9.43;6.13;;;;;;;24.84;35.59;101184.59;5073117;28;20101;-73
2021/04/27 10:53:31;;;;;;;8.43;4.00;;;;;;;24.88;34.37;101184.41;5057627;28;20102;-73
2021/04/27 10:56:34;;;;;;;13.20;5.82;;;;;;;24.69;35.14;101198.66;5072828;28;20044;-74
2021/04/27 10:59:23;;;;;;;7.00;2.85;;;;;;;24.72;36.02;101187.75;5072376;28;20045;-73
2021/04/27 11:02:13;;;;;;;7.97;3.33;;;;;;;24.73;36.47;101197.63;5071800;28;20079;-74
2021/04/27 11:05:20;;;;;;;6.13;3.10;;;;;;;24.70;36.70;101201.28;5073768;28;20094;-74
2021/04/27 11:08:11;;;;;;;;;;;;;;;24.92;36.42;101201.44;5073880;28;20044;-73
2021/04/27 11:11:17;;;;;;;11.93;4.47;;;;;;;25.03;36.92;101204.63;5059171;28;19928;-74
2021/04/27 11:14:19;;;;;;;;;;;;;;;25.18;37.04;101205.88;5073617;28;20040;-74
2021/04/27 11:21:09;;;;;;;11.50;4.07;;;;;;;25.43;36.96;101182.38;5072415;28;20127;-73
2021/04/27 11:23:56;;;;;;;9.70;3.75;;;;;;;25.80;36.59;101177.28;5073944;28;20063;-73
2021/04/27 11:26:45;;;;;;;6.97;3.38;;;;;;;26.17;36.49;101173.94;5072967;28;20150;-74
2021/04/27 11:29:33;;;;;;;6.15;3.10;;;;;;;26.53;36.00;101163.38;5073000;28;20044;-73
2021/04/27 11:32:21;;;;;;;8.30;3.38;;;;;;;26.73;36.04;101153.47;5072842;28;20071;-74
2021/04/27 11:35:12;;;;;;;11.15;3.92;;;;;;;27.16;35.33;101139.75;5072900;28;20041;-74
2021/04/27 11:38:02;;;;;;;7.53;3.33;;;;;;;27.23;35.64;101135.81;5073435;28;20048;-74
2021/04/27 11:40:50;;;;;;;8.52;3.83;;;;;;;27.17;36.10;101127.97;5072775;28;20041;-74
2021/04/27 11:43:37;;;;;;;7.25;3.63;;;;;;;27.51;35.27;101121.78;5071996;28;20079;-74
2021/04/27 11:46:25;;;;;;;7.85;3.00;;;;;;;27.79;35.28;101115.03;5075861;28;20136;-74
2021/04/27 11:49:12;;;;;;;5.63;2.95;;;;;;;27.71;35.31;101110.84;5062638;28;20135;-74
2021/04/27 11:51:59;;;;;;;7.40;2.58;;;;;;;27.79;35.54;101109.59;5076272;28;20128;-74
2021/04/27 11:54:48;;;;;;;9.07;3.10;;;;;;;27.51;35.90;101102.78;5075877;28;20064;-74
2021/04/27 11:57:35;;;;;;;7.50;3.88;;;;;;;27.51;36.16;101094.66;5076493;28;20090;-74
2021/04/27 12:00:30;;;;;;;5.20;2.60;;;;;;;27.51;35.92;101091.94;5075865;28;20136;-73
2021/04/27 12:03:28;;;;;;;8.20;3.35;;;;;;;27.48;35.65;101086.69;5076001;28;20170;-73
2021/04/27 12:06:18;;;;;;;8.32;3.78;;;;;;;27.06;36.69;101084.19;5077137;28;20501;-73
2021/04/27 12:09:11;;;;;;;8.25;2.67;;;;;;;26.95;36.12;101079.28;5075508;28;20132;-74
2021/04/27 12:12:10;;;;;;;6.32;3.00;;;;;;;26.70;36.94;101073.22;5075902;28;20547;-75
2021/04/27 12:15:00;;;;;;;9.00;2.70;;;;;;;26.45;37.82;101076.16;5076149;28;20040;-75
2021/04/27 12:17:47;;;;;;;11.02;2.97;;;;;;;26.04;38.34;101067.16;5076397;28;20051;-73
2021/04/27 12:20:35;;;;;;;6.28;2.63;;;;;;;26.19;38.10;101074.56;5061375;28;20132;-75
2021/04/27 12:23:23;;;;;;;8.38;2.83;;;;;;;25.84;39.12;101066.25;5075396;28;20496;-74
2021/04/27 12:26:11;;;;;;;9.30;2.78;;;;;;;26.04;38.90;101061.72;5076463;28;20461;-74
2021/04/27 12:29:00;;;;;;;6.00;2.42;;;;;;;26.28;38.52;101058.91;5075319;28;20075;-74
2021/04/27 12:31:48;;;;;;;7.75;3.20;;;;;;;26.36;38.61;101051.34;5075968;28;20086;-74
2021/04/27 12:34:36;;;;;;;12.18;3.75;;;;;;;26.26;39.19;101056.28;5060705;28;20085;-74
2021/04/27 12:37:26;;;;;;;6.13;2.33;;;;;;;26.17;39.51;101045.84;5076007;28;20127;-73
2021/04/27 12:40:19;;;;;;;8.02;3.17;;;;;;;26.08;39.79;101046.22;5076046;28;20052;-74
2021/04/27 12:43:09;;;;;;;10.48;4.60;;;;;;;26.10;39.67;101050.63;5075641;28;20440;-75
2021/04/27 12:46:00;;;;;;;9.98;4.68;;;;;;;26.13;40.04;101042.38;5075064;28;20073;-74
2021/04/27 12:48:47;;;;;;;6.72;3.08;;;;;;;25.97;40.16;101048.53;5075372;28;20464;-74
2021/04/27 12:51:34;;;;;;;6.70;3.03;;;;;;;25.75;40.69;101041.34;5076068;28;20484;-74
2021/04/27 12:54:26;;;;;;;4.18;2.35;;;;;;;25.49;41.25;101035.22;5075210;28;20585;-74
2021/04/27 12:57:17;;;;;;;6.07;2.58;;;;;;;25.44;40.85;101031.84;5074645;28;20090;-74
2021/04/27 13:00:07;;;;;;;6.38;2.95;;;;;;;25.35;40.55;101033.97;5075373;28;20079;-74
2021/04/27 13:02:56;;;;;;;7.80;2.80;;;;;;;25.47;40.29;101035.28;5074432;28;20425;-74
2021/04/27 13:05:43;;;;;;;6.97;3.30;;;;;;;25.84;39.74;101021.13;5075917;28;20131;-74
2021/04/27 13:08:31;;;;;;;6.55;2.85;;;;;;;26.16;38.88;101019.72;5074344;28;20489;-74